Eikamaru No.2 — JD3056 — position and weather

sailwx.info

Track history (hours):
 
Tides and Currents Weather Stations Pressure Air Temp Water Temp Dewpoint Dewpoint Depression Visibility Wind Speed Wind Dir Waves Ship Positions

Eikamaru No.2

Last reported at 2014-Oct-31 23:24 UTC. Time now 2014-Nov-01 09:12 UTC.
Position N 35°40' E 139°59'.

Length 60 m; draft 3.3 m.

Type: Tanker. MMSI: 431001342.

Date/timePositionNaut miles runAvg speedWind from/ knotsBaromVisibWave heightAir tempDewpointWater temp
2014-Oct-31 23:24N 35°40' E 139°59'5 5.4
2014-Oct-31 22:33N 35°36' E 139°57'0 0.0
2014-Oct-31 21:33N 35°36' E 139°57'0 0.0
2014-Oct-31 20:33N 35°36' E 139°57'0 0.0
2014-Oct-31 19:33N 35°36' E 139°57'0 0.0
2014-Oct-31 17:11N 35°36' E 139°57'0 0.0
2014-Oct-31 16:04N 35°36' E 139°57'1 0.1
2014-Oct-31 11:08N 35°36' E 139°57'812.8
2014-Oct-31 10:28N 35°30' E 139°49'3 0.4
2014-Oct-31 04:06N 35°31' E 139°46'4 7.4
2014-Oct-31 03:31N 35°31' E 139°51'7 1.5
2014-Oct-30 22:32N 35°33' E 140°00'0 0.0
2014-Oct-30 21:32N 35°33' E 140°00'4 4.0
2014-Oct-30 20:26N 35°31' E 139°55'1011.6
2014-Oct-30 19:33N 35°24' E 139°46'1010.4
2014-Oct-30 18:33N 35°13' E 139°47'9 0.2
2014-Oct-29 04:33N 35°22' E 139°42'1110.9
2014-Oct-29 03:33N 35°30' E 139°51'7 1.2
2014-Oct-28 21:33N 35°32' E 139°59'0 0.0
2014-Oct-28 20:30N 35°32' E 139°59'0 0.0
2014-Oct-28 19:21N 35°32' E 139°59'0 0.0
2014-Oct-28 18:30N 35°32' E 139°59'0 0.0
2014-Oct-28 17:24N 35°32' E 139°59'3 1.1
2014-Oct-28 14:32N 35°31' E 139°56'1111.6
2014-Oct-28 13:33N 35°23' E 139°46'1010.2
2014-Oct-28 12:33N 35°13' E 139°47'11 0.3
2014-Oct-27 04:33N 35°23' E 139°42'1211.2
2014-Oct-27 03:29N 35°31' E 139°53'7 0.2
2014-Oct-25 22:25N 35°37' E 139°57'0 0.0
2014-Oct-25 16:33N 35°37' E 139°58'0 0.0
2014-Oct-25 15:30N 35°37' E 139°57'1111.6
2014-Oct-25 14:33N 35°27' E 139°50'1110.9
2014-Oct-25 13:33N 35°17' E 139°45'1211.3
2014-Oct-25 12:32N 35°06' E 139°46'10 0.3
2014-Oct-24 04:23N 35°16' E 139°46'910.6
2014-Oct-24 03:33N 35°25' E 139°43'1211.7
2014-Oct-24 02:30N 35°32' E 139°56'8 0.2
2014-Oct-22 06:33N 35°28' E 139°47'8 7.9
2014-Oct-22 05:33N 35°22' E 139°40'0 0.0
2014-Oct-22 04:33N 35°22' E 139°40'0 0.0
2014-Oct-22 03:33N 35°22' E 139°40'0 0.0
2014-Oct-22 02:33N 35°22' E 139°40'0 0.0
2014-Oct-22 01:33N 35°22' E 139°40'0 0.0
2014-Oct-22 00:33N 35°22' E 139°40'0 0.0
2014-Oct-21 23:33N 35°22' E 139°40'  
Track history (hours):
 
Tides and Currents Weather Stations Pressure Air Temp Water Temp Dewpoint Dewpoint Depression Visibility Wind Speed Wind Dir Waves Ship Positions

Eikamaru No.2

Last reported at 2014-Oct-31 23:24 UTC. Time now 2014-Nov-01 09:12 UTC.
Position N 35°40' E 139°59'.

Length 60 m; draft 3.3 m.

Type: Tanker. MMSI: 431001342.

Date/timePositionNaut miles runAvg speedWind from/ knotsBaromVisibWave heightAir tempDewpointWater temp
2014-Oct-31 23:24N 35°40' E 139°59'5 5.4
2014-Oct-31 22:33N 35°36' E 139°57'0 0.0
2014-Oct-31 21:33N 35°36' E 139°57'0 0.0
2014-Oct-31 20:33N 35°36' E 139°57'0 0.0
2014-Oct-31 19:33N 35°36' E 139°57'0 0.0
2014-Oct-31 17:11N 35°36' E 139°57'0 0.0
2014-Oct-31 16:04N 35°36' E 139°57'1 0.1
2014-Oct-31 11:08N 35°36' E 139°57'812.8
2014-Oct-31 10:28N 35°30' E 139°49'3 0.4
2014-Oct-31 04:06N 35°31' E 139°46'4 7.4
2014-Oct-31 03:31N 35°31' E 139°51'7 1.5
2014-Oct-30 22:32N 35°33' E 140°00'0 0.0
2014-Oct-30 21:32N 35°33' E 140°00'4 4.0
2014-Oct-30 20:26N 35°31' E 139°55'1011.6
2014-Oct-30 19:33N 35°24' E 139°46'1010.4
2014-Oct-30 18:33N 35°13' E 139°47'9 0.2
2014-Oct-29 04:33N 35°22' E 139°42'1110.9
2014-Oct-29 03:33N 35°30' E 139°51'7 1.2
2014-Oct-28 21:33N 35°32' E 139°59'0 0.0
2014-Oct-28 20:30N 35°32' E 139°59'0 0.0
2014-Oct-28 19:21N 35°32' E 139°59'0 0.0
2014-Oct-28 18:30N 35°32' E 139°59'0 0.0
2014-Oct-28 17:24N 35°32' E 139°59'3 1.1
2014-Oct-28 14:32N 35°31' E 139°56'1111.6
2014-Oct-28 13:33N 35°23' E 139°46'1010.2
2014-Oct-28 12:33N 35°13' E 139°47'11 0.3
2014-Oct-27 04:33N 35°23' E 139°42'1211.2
2014-Oct-27 03:29N 35°31' E 139°53'7 0.2
2014-Oct-25 22:25N 35°37' E 139°57'0 0.0
2014-Oct-25 16:33N 35°37' E 139°58'0 0.0
2014-Oct-25 15:30N 35°37' E 139°57'1111.6
2014-Oct-25 14:33N 35°27' E 139°50'1110.9
2014-Oct-25 13:33N 35°17' E 139°45'1211.3
2014-Oct-25 12:32N 35°06' E 139°46'10 0.3
2014-Oct-24 04:23N 35°16' E 139°46'910.6
2014-Oct-24 03:33N 35°25' E 139°43'1211.7
2014-Oct-24 02:30N 35°32' E 139°56'8 0.2
2014-Oct-22 06:33N 35°28' E 139°47'8 7.9
2014-Oct-22 05:33N 35°22' E 139°40'0 0.0
2014-Oct-22 04:33N 35°22' E 139°40'0 0.0
2014-Oct-22 03:33N 35°22' E 139°40'0 0.0
2014-Oct-22 02:33N 35°22' E 139°40'0 0.0
2014-Oct-22 01:33N 35°22' E 139°40'0 0.0
2014-Oct-22 00:33N 35°22' E 139°40'0 0.0
2014-Oct-21 23:33N 35°22' E 139°40'  

Dump ship's entire track history